Time;durP1;ratioP1;P1;durP2;ratioP2;P2;SDS_P1;SDS_P2;PMS_P1;PMS_P2;Temp;Humidity;BMP_temperature;BMP_pressure;BME280_temperature;BME280_humidity;BME280_pressure;Samples;Min_cycle;Max_cycle;Signal;HPM_P1;HPM_P2
2022/11/03 00:01:52;;;;;;;14.93;4.57;;;7.70;82.70;;;;;;5017042;28;20033;-86
2022/11/03 00:04:19;;;;;;;13.18;4.82;;;7.70;82.70;;;;;;5014590;28;20038;-90
2022/11/03 00:10:07;;;;;;;10.77;4.40;;;7.50;83.20;;;;;;5022560;23;20053;-83
2022/11/03 00:12:33;;;;;;;12.40;4.05;;;7.60;82.90;;;;;;5010766;28;20025;-86
2022/11/03 00:14:58;;;;;;;13.95;4.80;;;7.60;82.80;;;;;;5017701;28;20080;-91
2022/11/03 00:17:24;;;;;;;12.32;4.15;;;7.50;83.00;;;;;;5014871;28;20100;-84
2022/11/03 00:19:49;;;;;;;11.07;4.57;;;7.50;83.20;;;;;;5014800;28;20034;-84
2022/11/03 00:22:15;;;;;;;9.88;3.30;;;7.50;83.40;;;;;;5015032;28;20445;-79
2022/11/03 00:24:40;;;;;;;14.10;4.15;;;7.50;83.40;;;;;;5014287;28;20371;-85
2022/11/03 00:27:06;;;;;;;11.82;3.95;;;7.60;83.20;;;;;;5014239;28;20026;-79
2022/11/03 00:29:32;;;;;;;13.00;3.80;;;7.70;82.90;;;;;;5014586;28;20065;-82
2022/11/03 00:31:57;;;;;;;7.22;2.65;;;7.70;82.50;;;;;;5013324;28;20014;-80
2022/11/03 00:34:23;;;;;;;10.13;2.55;;;7.80;82.70;;;;;;5004702;28;20033;-79
2022/11/03 00:36:48;;;;;;;6.60;2.72;;;7.80;83.30;;;;;;5013439;28;20084;-79
2022/11/03 00:39:45;;;;;;;10.63;2.67;;;7.90;83.40;;;;;;5014554;28;20049;-79
2022/11/03 00:42:10;;;;;;;9.00;2.75;;;7.90;83.40;;;;;;5011068;28;20121;-79
2022/11/03 00:44:36;;;;;;;5.82;2.45;;;7.90;83.20;;;;;;5012882;28;20126;-79
2022/11/03 00:47:02;;;;;;;12.40;3.28;;;7.90;83.00;;;;;;5013071;28;20061;-79
2022/11/03 00:49:27;;;;;;;8.82;2.80;;;7.80;83.10;;;;;;5013038;28;20030;-81
2022/11/03 00:51:53;;;;;;;9.25;2.70;;;7.90;83.30;;;;;;5012841;28;20018;-80
2022/11/03 00:54:18;;;;;;;11.75;3.22;;;7.90;84.10;;;;;;5011463;28;20030;-80
2022/11/03 00:56:44;;;;;;;9.02;3.13;;;7.90;82.80;;;;;;5006660;28;20029;-80
2022/11/03 00:59:09;;;;;;;9.57;3.08;;;7.90;82.60;;;;;;5012833;28;20170;-80
2022/11/03 01:01:39;;;;;;;9.95;2.90;;;7.90;82.80;;;;;;5013203;28;20091;-80
2022/11/03 01:09:44;;;;;;;10.48;2.88;;;7.80;84.20;;;;;;5423920;22;20058;-80
2022/11/03 01:12:14;;;;;;;16.40;3.53;;;7.80;84.30;;;;;;5021405;28;20021;-81
2022/11/03 01:14:45;;;;;;;10.77;2.80;;;7.80;83.90;;;;;;5037758;28;20022;-81
2022/11/03 01:17:16;;;;;;;14.32;3.10;;;7.90;83.70;;;;;;5175761;22;20118;-81
2022/11/03 01:19:42;;;;;;;10.10;3.05;;;7.80;83.80;;;;;;4998233;28;20057;-81
2022/11/03 01:22:08;;;;;;;13.45;2.88;;;7.80;84.00;;;;;;5015846;28;20096;-80
2022/11/03 01:24:34;;;;;;;8.90;2.50;;;7.80;84.20;;;;;;5015918;28;20085;-80
2022/11/03 01:27:00;;;;;;;7.85;2.60;;;7.80;84.30;;;;;;4998289;28;20022;-81
2022/11/03 01:29:25;;;;;;;10.90;2.55;;;7.80;84.10;;;;;;4998464;28;20034;-81
2022/11/03 01:31:51;;;;;;;9.60;3.00;;;7.80;83.90;;;;;;5015619;28;20022;-81
2022/11/03 01:34:42;;;;;;;9.77;2.83;;;7.90;83.70;;;;;;4998834;28;20030;-94
2022/11/03 01:37:08;;;;;;;8.45;3.20;;;7.90;83.30;;;;;;5016294;28;20031;-81
2022/11/03 01:39:33;;;;;;;9.02;2.40;;;7.90;83.20;;;;;;4998678;28;20014;-81
2022/11/03 01:41:59;;;;;;;12.20;3.20;;;7.90;83.40;;;;;;5015679;28;20029;-82
2022/11/03 01:44:26;;;;;;;8.93;2.30;;;7.90;83.40;;;;;;4998003;28;20018;-83
2022/11/03 01:46:54;;;;;;;10.43;3.00;;;7.90;83.60;;;;;;4997867;28;20057;-81
2022/11/03 01:49:38;;;;;;;8.30;2.95;;;7.80;83.30;;;;;;5015438;28;20026;-80
2022/11/03 01:52:19;;;;;;;17.05;3.17;;;7.90;83.30;;;;;;5015477;28;20100;-81
2022/11/03 01:54:48;;;;;;;8.25;2.63;;;7.80;83.20;;;;;;5015470;28;20390;-80
2022/11/03 01:57:20;;;;;;;8.18;2.60;;;7.80;83.00;;;;;;5015272;28;20044;-81
2022/11/03 01:59:47;;;;;;;5.78;2.50;;;7.80;82.80;;;;;;5016022;28;20021;-79
2022/11/03 02:02:12;;;;;;;8.95;2.38;;;7.90;82.70;;;;;;4997817;28;20121;-87
2022/11/03 02:04:38;;;;;;;6.20;2.72;;;7.90;82.20;;;;;;5015551;28;20057;-79
2022/11/03 02:07:24;;;;;;;10.95;2.95;;;7.90;81.70;;;;;;5015221;28;20053;-79
2022/11/03 02:09:50;;;;;;;4.10;2.55;;;7.90;81.10;;;;;;5015167;28;20390;-79
2022/11/03 02:12:17;;;;;;;10.07;2.65;;;7.90;80.70;;;;;;5015025;28;20037;-79
2022/11/03 02:14:52;;;;;;;6.70;2.53;;;7.90;80.20;;;;;;5014970;28;20026;-90
2022/11/03 02:17:20;;;;;;;8.35;2.42;;;7.80;80.20;;;;;;5015208;28;20050;-79
2022/11/03 02:20:10;;;;;;;7.90;2.65;;;7.80;80.50;;;;;;5014874;28;20034;-78
2022/11/03 02:23:06;;;;;;;7.93;2.35;;;7.70;80.80;;;;;;5014925;28;20537;-80
2022/11/03 02:25:43;;;;;;;8.93;2.47;;;7.60;81.20;;;;;;5014664;28;20032;-80
2022/11/03 02:28:10;;;;;;;5.78;2.15;;;7.50;81.70;;;;;;5014800;28;20170;-80
2022/11/03 02:30:56;;;;;;;8.73;2.80;;;7.50;81.50;;;;;;5083395;23;20024;-80
2022/11/03 02:33:35;;;;;;;8.07;2.50;;;7.50;81.50;;;;;;5006079;28;20038;-88
2022/11/03 02:36:19;;;;;;;6.07;2.30;;;7.60;81.50;;;;;;5011997;28;20026;-83
2022/11/03 02:38:59;;;;;;;8.00;2.50;;;7.60;81.40;;;;;;5013604;28;20032;-80
2022/11/03 02:41:27;;;;;;;8.00;2.63;;;7.70;81.10;;;;;;4997658;28;20411;-83
2022/11/03 02:43:55;;;;;;;14.70;3.30;;;7.70;80.80;;;;;;4996962;28;20032;-80
2022/11/03 02:46:23;;;;;;;9.45;2.78;;;7.70;81.70;;;;;;4997153;28;20083;-80
2022/11/03 02:48:49;;;;;;;7.70;3.35;;;7.60;81.60;;;;;;4997158;28;20041;-81
2022/11/03 02:51:15;;;;;;;9.05;2.90;;;7.60;83.10;;;;;;5002110;28;20026;-80
2022/11/03 02:53:55;;;;;;;10.43;3.42;;;7.60;84.60;;;;;;4996964;28;20026;-80
2022/11/03 02:56:23;;;;;;;9.13;2.88;;;7.50;84.60;;;;;;4996872;28;20558;-79
2022/11/03 02:59:03;;;;;;;14.73;3.40;;;7.60;84.70;;;;;;4996740;28;20040;-80
2022/11/03 03:02:15;;;;;;;10.40;3.15;;;7.50;84.70;;;;;;4992102;28;20084;-81
2022/11/03 03:05:33;;;;;;;11.43;3.72;;;7.60;84.50;;;;;;4970108;28;20480;-82
2022/11/03 03:10:50;;;;;;;13.10;3.85;;;7.60;84.60;;;;;;5012695;28;20100;-80
2022/11/03 03:13:19;;;;;;;16.60;4.32;;;7.60;84.60;;;;;;4996504;28;20033;-80
2022/11/03 03:19:17;;;;;;;8.70;3.40;;;7.70;84.30;;;;;;5194797;23;20069;-80
2022/11/03 03:21:45;;;;;;;12.63;3.80;;;7.70;84.20;;;;;;5032580;28;20061;-81
2022/11/03 03:24:37;;;;;;;8.55;3.28;;;7.70;83.60;;;;;;5034140;28;20059;-88
2022/11/03 03:27:07;;;;;;;12.35;3.75;;;7.60;83.20;;;;;;5033267;28;20609;-81
2022/11/03 03:29:43;;;;;;;13.48;3.60;;;7.50;83.20;;;;;;5034144;28;20026;-81
2022/11/03 03:32:09;;;;;;;16.35;4.03;;;7.40;83.80;;;;;;5033546;28;20586;-81
2022/11/03 03:34:38;;;;;;;9.70;3.42;;;7.30;84.00;;;;;;5033921;28;20497;-80
2022/11/03 03:37:05;;;;;;;8.85;3.67;;;7.20;84.70;;;;;;5033402;28;20099;-81
2022/11/03 03:39:35;;;;;;;11.00;3.58;;;7.20;84.90;;;;;;5015771;28;20017;-80
2022/11/03 03:42:02;;;;;;;7.53;3.03;;;7.20;85.10;;;;;;5033457;28;20510;-82
2022/11/03 03:44:29;;;;;;;10.18;4.30;;;7.20;85.30;;;;;;5033428;28;20056;-81
2022/11/03 03:47:11;;;;;;;11.93;4.10;;;7.30;85.50;;;;;;5033142;28;20079;-81
2022/11/03 03:49:36;;;;;;;14.32;4.65;;;7.20;84.90;;;;;;5029105;28;20053;-82
2022/11/03 03:52:03;;;;;;;9.18;3.92;;;7.20;85.00;;;;;;5031088;28;20482;-80
2022/11/03 03:54:28;;;;;;;14.30;4.50;;;7.20;85.40;;;;;;5032993;28;20029;-80
2022/11/03 03:59:30;;;;;;;9.30;3.60;;;7.20;85.80;;;;;;5232843;22;20077;-80
2022/11/03 04:01:56;;;;;;;10.93;4.38;;;7.20;86.10;;;;;;4996485;28;20472;-81
2022/11/03 04:04:21;;;;;;;12.05;3.38;;;7.30;86.20;;;;;;5013238;28;20540;-80
2022/11/03 04:06:47;;;;;;;14.18;3.95;;;7.30;86.20;;;;;;5014140;28;20018;-80
2022/11/03 04:09:13;;;;;;;13.02;3.92;;;7.40;86.00;;;;;;5013651;28;20041;-80
2022/11/03 04:22:47;;;;;;;8.63;3.88;;;7.30;84.70;;;;;;5032987;28;20060;-80
2022/11/03 04:25:13;;;;;;;7.00;3.60;;;7.20;84.50;;;;;;5033008;28;20474;-80
2022/11/03 04:27:40;;;;;;;10.90;3.58;;;7.20;84.90;;;;;;5015016;28;20113;-84
2022/11/03 04:30:13;;;;;;;9.25;3.30;;;7.20;85.70;;;;;;5032674;28;20601;-79
2022/11/03 04:32:39;;;;;;;14.00;4.20;;;7.20;84.60;;;;;;5032965;28;20018;-81
2022/11/03 04:35:18;;;;;;;9.20;3.58;;;7.20;84.70;;;;;;5032749;28;20028;-78
2022/11/03 04:37:47;;;;;;;9.10;3.35;;;7.30;84.80;;;;;;5035748;28;20056;-81
2022/11/03 04:40:17;;;;;;;12.77;3.60;;;7.30;84.50;;;;;;5036476;28;20033;-79
2022/11/03 04:42:43;;;;;;;13.35;3.58;;;7.40;84.10;;;;;;5036727;28;20056;-82
2022/11/03 04:45:28;;;;;;;9.70;3.40;;;7.40;83.80;;;;;;5036771;28;20526;-81
2022/11/03 04:50:28;;;;;;;9.48;3.47;;;7.30;83.80;;;;;;5052425;22;20120;-79
2022/11/03 04:52:57;;;;;;;15.52;3.20;;;7.40;83.80;;;;;;5015631;28;20030;-80
2022/11/03 04:55:23;;;;;;;13.07;4.47;;;7.30;83.60;;;;;;5016684;28;20116;-83
2022/11/03 04:57:55;;;;;;;7.43;3.30;;;7.30;83.70;;;;;;5016794;28;20022;-81
2022/11/03 05:00:22;;;;;;;8.05;2.47;;;7.40;83.70;;;;;;5016823;28;20058;-80
2022/11/03 05:02:49;;;;;;;9.20;3.50;;;7.50;83.50;;;;;;5015262;28;20018;-79
2022/11/03 05:05:20;;;;;;;8.18;3.17;;;7.50;82.80;;;;;;5016496;28;20030;-79
2022/11/03 05:07:48;;;;;;;14.35;3.50;;;7.40;82.50;;;;;;5016780;28;20479;-82
2022/11/03 05:10:19;;;;;;;9.18;3.30;;;7.40;82.30;;;;;;5015770;28;20474;-82
2022/11/03 05:12:47;;;;;;;6.72;2.63;;;7.30;83.10;;;;;;5015281;28;20112;-82
2022/11/03 05:15:43;;;;;;;10.18;3.30;;;7.30;83.40;;;;;;5031581;28;20119;-85
2022/11/03 05:18:30;;;;;;;8.98;2.70;;;7.40;83.40;;;;;;5007973;28;20522;-82
2022/11/03 05:21:01;;;;;;;10.15;3.45;;;7.50;84.00;;;;;;5016605;28;20022;-79
2022/11/03 05:23:35;;;;;;;7.88;3.13;;;7.50;84.00;;;;;;5017854;28;20034;-79
2022/11/03 05:26:01;;;;;;;10.27;2.80;;;7.60;83.70;;;;;;5017253;28;20052;-80
2022/11/03 05:28:34;;;;;;;11.48;3.58;;;7.70;83.60;;;;;;5016557;28;20136;-86
2022/11/03 05:31:00;;;;;;;11.48;3.33;;;7.80;82.70;;;;;;5015733;28;20108;-79
2022/11/03 05:33:33;;;;;;;11.43;3.65;;;7.80;82.50;;;;;;5016367;28;20030;-85
2022/11/03 05:39:00;;;;;;;9.18;3.33;;;7.80;81.80;;;;;;5023432;23;20415;-84
2022/11/03 05:41:29;;;;;;;7.35;3.08;;;7.70;82.10;;;;;;4998918;28;20075;-82
2022/11/03 05:47:13;;;;;;;6.93;2.90;;;7.60;81.70;;;;;;5049173;22;20045;-79
2022/11/03 05:49:39;;;;;;;10.38;3.22;;;7.50;82.20;;;;;;5014297;28;20042;-82
2022/11/03 05:52:11;;;;;;;6.95;3.17;;;7.50;82.20;;;;;;5015852;28;20496;-81
2022/11/03 05:54:37;;;;;;;12.35;4.20;;;7.50;82.30;;;;;;5015545;28;20454;-82
2022/11/03 05:57:10;;;;;;;13.27;3.30;;;7.60;82.50;;;;;;5015888;28;20033;-83
2022/11/03 05:59:35;;;;;;;9.88;2.55;;;7.50;82.50;;;;;;5015806;28;20390;-84
2022/11/03 06:02:31;;;;;;;7.53;2.33;;;7.60;82.70;;;;;;5015402;28;20033;-82
2022/11/03 06:04:58;;;;;;;9.48;2.63;;;7.80;82.30;;;;;;5016624;28;20033;-80
2022/11/03 06:07:30;;;;;;;7.13;3.55;;;7.80;81.90;;;;;;5019031;28;20030;-79
2022/11/03 06:09:57;;;;;;;10.30;3.40;;;7.80;81.20;;;;;;5015342;28;20022;-78
2022/11/03 06:12:24;;;;;;;12.93;3.90;;;7.70;81.60;;;;;;5014993;28;20026;-79
2022/11/03 06:14:51;;;;;;;10.02;3.90;;;7.70;81.50;;;;;;5014931;28;20026;-79
2022/11/03 06:20:39;;;;;;;9.82;3.50;;;7.70;81.40;;;;;;5031773;22;20071;-79
2022/11/03 06:23:10;;;;;;;9.45;3.78;;;7.80;80.80;;;;;;4997941;28;20431;-79
2022/11/03 06:28:05;;;;;;;6.63;2.80;;;7.70;80.70;;;;;;5044117;22;20048;-79
2022/11/03 06:30:34;;;;;;;7.97;3.00;;;7.70;81.00;;;;;;4998732;28;20041;-91
2022/11/03 06:33:09;;;;;;;11.82;3.53;;;7.70;80.70;;;;;;4997616;28;20167;-80
2022/11/03 06:35:35;;;;;;;10.52;3.58;;;7.70;80.60;;;;;;5014705;28;20057;-79
2022/11/03 06:38:00;;;;;;;7.13;3.60;;;7.70;80.30;;;;;;4996678;28;20116;-79
2022/11/03 06:40:32;;;;;;;9.30;3.70;;;7.70;80.40;;;;;;5013473;28;20026;-81
2022/11/03 06:42:58;;;;;;;13.00;4.25;;;7.70;80.30;;;;;;4996979;28;20100;-81
2022/11/03 06:45:24;;;;;;;11.95;3.70;;;7.80;80.50;;;;;;5014430;28;20073;-80
2022/11/03 06:47:52;;;;;;;7.13;3.83;;;7.80;80.50;;;;;;4996591;28;20443;-82
2022/11/03 06:50:30;;;;;;;8.52;3.63;;;7.90;80.50;;;;;;5017966;28;20017;-85
2022/11/03 06:52:57;;;;;;;12.88;3.78;;;8.00;81.00;;;;;;4996916;28;20037;-78
2022/11/03 06:55:28;;;;;;;10.00;3.53;;;8.20;81.70;;;;;;5014195;28;20433;-79
2022/11/03 06:57:59;;;;;;;13.60;4.15;;;8.40;81.60;;;;;;5003220;28;20474;-80
2022/11/03 07:00:28;;;;;;;14.55;4.45;;;8.50;80.70;;;;;;5003534;28;20036;-89
2022/11/03 07:03:16;;;;;;;7.22;3.03;;;8.60;79.10;;;;;;5015239;28;20109;-81
2022/11/03 07:05:44;;;;;;;10.10;5.00;;;8.80;80.70;;;;;;5017572;28;20078;-80
2022/11/03 07:08:19;;;;;;;10.10;3.70;;;9.00;80.00;;;;;;4986568;28;20044;-80
2022/11/03 07:10:45;;;;;;;;;;;9.30;79.00;;;;;;5003806;28;20022;-84
2022/11/03 07:13:16;;;;;;;26.17;5.22;;;9.50;79.00;;;;;;5014801;28;19905;-78
2022/11/03 07:15:43;;;;;;;14.07;4.95;;;9.80;81.60;;;;;;5013990;28;20510;-79
2022/11/03 07:18:35;;;;;;;10.93;3.45;;;10.30;79.40;;;;;;5013470;28;20121;-79
2022/11/03 07:21:14;;;;;;;9.27;3.00;;;11.00;75.00;;;;;;5013219;28;20358;-79
2022/11/03 07:23:40;;;;;;;7.63;2.63;;;11.30;72.80;;;;;;5008776;28;20061;-79
2022/11/03 07:26:09;;;;;;;9.27;3.08;;;11.60;72.60;;;;;;5011138;28;20057;-79
2022/11/03 07:28:37;;;;;;;11.10;2.65;;;11.90;70.90;;;;;;4995473;28;20133;-78
2022/11/03 07:31:23;;;;;;;7.00;2.25;;;12.10;69.60;;;;;;5013575;28;20073;-79
2022/11/03 07:33:54;;;;;;;5.32;2.47;;;12.40;68.10;;;;;;5013155;28;20641;-78
2022/11/03 07:36:22;;;;;;;7.88;2.58;;;12.60;68.40;;;;;;5013393;28;20105;-78
2022/11/03 07:38:51;;;;;;;4.25;2.45;;;12.70;66.10;;;;;;5015227;28;20108;-83
2022/11/03 07:41:24;;;;;;;6.07;2.50;;;12.50;65.20;;;;;;5008513;28;20030;-81
2022/11/03 07:43:54;;;;;;;9.15;3.10;;;12.30;66.20;;;;;;5014747;28;20017;-81
2022/11/03 07:46:21;;;;;;;9.05;2.85;;;12.10;67.00;;;;;;5012320;28;20050;-80
2022/11/03 07:48:58;;;;;;;7.78;2.80;;;11.90;67.80;;;;;;5012363;28;20471;-83
2022/11/03 07:51:30;;;;;;;9.55;2.50;;;11.70;68.80;;;;;;4995754;28;20041;-79
2022/11/03 07:54:09;;;;;;;6.55;2.88;;;11.60;69.20;;;;;;5013349;28;20026;-86
2022/11/03 07:56:41;;;;;;;7.20;2.42;;;11.50;70.60;;;;;;4995579;28;20029;-80
2022/11/03 07:59:10;;;;;;;8.45;2.67;;;11.50;71.10;;;;;;5012939;28;20025;-76
2022/11/03 08:01:46;;;;;;;10.25;3.50;;;11.60;71.30;;;;;;5013967;28;20022;-79
2022/11/03 08:04:23;;;;;;;11.57;3.90;;;11.50;71.60;;;;;;5000313;28;20032;-78
2022/11/03 08:06:48;;;;;;;10.70;3.90;;;11.60;71.50;;;;;;5015613;28;20018;-81
2022/11/03 08:09:14;;;;;;;10.98;4.35;;;11.60;71.60;;;;;;5019546;28;20195;-77
2022/11/03 08:11:39;;;;;;;14.48;4.03;;;11.60;71.90;;;;;;5020549;28;20026;-81
2022/11/03 08:14:05;;;;;;;12.32;3.70;;;11.70;71.80;;;;;;5037221;28;20026;-82
2022/11/03 08:16:31;;;;;;;9.63;3.25;;;11.80;72.00;;;;;;5016356;28;20030;-82
2022/11/03 08:18:56;;;;;;;6.85;2.83;;;11.80;71.70;;;;;;5019662;28;20022;-78
2022/11/03 08:21:22;;;;;;;6.22;2.85;;;11.80;71.70;;;;;;5018163;28;20035;-82
2022/11/03 08:23:47;;;;;;;10.90;3.58;;;11.90;71.90;;;;;;5017923;28;20121;-80
2022/11/03 08:26:14;;;;;;;7.70;2.65;;;11.90;72.20;;;;;;4997963;28;20614;-83
2022/11/03 08:28:39;;;;;;;7.18;2.60;;;12.00;71.60;;;;;;5011155;28;20050;-77
2022/11/03 08:31:05;;;;;;;8.90;2.70;;;12.10;71.70;;;;;;5003612;28;20494;-85
2022/11/03 08:33:34;;;;;;;7.72;2.47;;;12.20;71.40;;;;;;5032728;28;20439;-77
2022/11/03 08:36:00;;;;;;;7.32;2.67;;;12.20;71.40;;;;;;5042330;22;20025;-76
2022/11/03 08:38:26;;;;;;;6.43;3.00;;;12.30;71.10;;;;;;5010276;28;20121;-77
2022/11/03 08:40:53;;;;;;;7.80;2.60;;;12.30;71.10;;;;;;5029048;28;20079;-77
2022/11/03 08:43:29;;;;;;;12.02;3.72;;;12.40;70.70;;;;;;5032479;28;20025;-86
2022/11/03 08:45:54;;;;;;;7.40;2.70;;;12.50;70.20;;;;;;5032988;28;20017;-81
2022/11/03 08:48:26;;;;;;;7.18;2.60;;;12.70;70.10;;;;;;5032403;28;20048;-78
2022/11/03 08:50:53;;;;;;;10.52;2.63;;;12.80;69.60;;;;;;5029904;28;20028;-80
2022/11/03 08:53:23;;;;;;;8.20;2.22;;;12.90;69.20;;;;;;5041289;28;20025;-77
2022/11/03 08:55:49;;;;;;;11.07;2.72;;;13.10;68.90;;;;;;5042241;28;20021;-76
2022/11/03 08:58:15;;;;;;;10.02;2.80;;;13.30;68.40;;;;;;5037497;28;20030;-78
2022/11/03 09:00:41;;;;;;;8.25;3.15;;;13.50;67.50;;;;;;5041141;28;20017;-78
2022/11/03 09:03:07;;;;;;;7.82;2.90;;;13.60;66.90;;;;;;5041734;28;20435;-78
2022/11/03 09:05:32;;;;;;;5.10;2.70;;;13.70;66.40;;;;;;5039783;28;20064;-78
2022/11/03 09:07:58;;;;;;;5.35;2.75;;;13.80;66.30;;;;;;5029091;28;20038;-79
2022/11/03 09:10:25;;;;;;;7.60;2.80;;;13.90;66.00;;;;;;5040679;28;20028;-78
2022/11/03 09:12:51;;;;;;;11.63;2.70;;;14.00;65.50;;;;;;5042034;28;20075;-79
2022/11/03 09:15:17;;;;;;;6.25;2.45;;;14.00;65.40;;;;;;5032308;28;20486;-81
2022/11/03 09:17:43;;;;;;;9.57;3.40;;;14.00;65.00;;;;;;5039918;28;20450;-78
2022/11/03 09:20:09;;;;;;;7.93;3.40;;;13.90;65.50;;;;;;5037020;28;20057;-77
2022/11/03 09:22:35;;;;;;;7.10;3.60;;;13.80;66.00;;;;;;5038004;28;20030;-82
2022/11/03 09:25:00;;;;;;;8.73;3.63;;;13.70;66.30;;;;;;5045424;28;20020;-78
2022/11/03 09:27:26;;;;;;;7.57;3.30;;;13.70;66.50;;;;;;5044397;28;20497;-79
2022/11/03 09:29:51;;;;;;;9.07;3.58;;;13.60;66.70;;;;;;5044141;28;20033;-78
2022/11/03 09:32:17;;;;;;;9.18;3.83;;;13.60;67.00;;;;;;5047202;28;20037;-78
2022/11/03 09:34:44;;;;;;;7.78;3.90;;;13.60;67.10;;;;;;5047001;28;20025;-77
2022/11/03 09:37:09;;;;;;;7.57;3.38;;;13.60;67.10;;;;;;5046264;28;20033;-77
2022/11/03 09:39:35;;;;;;;8.55;3.70;;;13.60;66.60;;;;;;5040668;28;20121;-79
2022/11/03 09:42:03;;;;;;;11.40;4.40;;;13.60;66.80;;;;;;5037538;28;20021;-80
2022/11/03 09:44:32;;;;;;;12.15;4.70;;;13.60;67.00;;;;;;5040861;28;20024;-80
2022/11/03 09:46:58;;;;;;;5.97;3.40;;;13.60;67.00;;;;;;5042183;28;20021;-77
2022/11/03 09:49:24;;;;;;;10.52;3.92;;;13.70;67.10;;;;;;5039327;28;20037;-79
2022/11/03 09:51:50;;;;;;;10.35;3.50;;;13.70;66.70;;;;;;5044516;28;20021;-76
2022/11/03 09:54:16;;;;;;;9.68;4.25;;;13.80;65.20;;;;;;5041307;28;20056;-78
2022/11/03 09:56:42;;;;;;;10.75;3.60;;;13.70;66.20;;;;;;5037935;28;20377;-79
2022/11/03 09:59:22;;;;;;;10.98;3.83;;;13.80;66.10;;;;;;5019485;28;20503;-76
2022/11/03 10:01:52;;;;;;;9.23;3.50;;;13.90;65.20;;;;;;5034833;28;20109;-76
2022/11/03 10:04:30;;;;;;;6.57;3.50;;;13.90;66.20;;;;;;5034883;28;20139;-79
2022/11/03 10:06:56;;;;;;;5.75;3.10;;;14.00;66.00;;;;;;5034870;28;20056;-79
2022/11/03 10:09:24;;;;;;;7.43;2.63;;;14.10;64.60;;;;;;5021849;28;20505;-80
2022/11/03 10:11:51;;;;;;;8.25;2.78;;;14.20;64.40;;;;;;5034696;28;20026;-82
2022/11/03 10:14:18;;;;;;;6.95;3.08;;;14.30;64.20;;;;;;5035095;28;20048;-78
2022/11/03 10:16:52;;;;;;;7.18;3.75;;;14.40;63.80;;;;;;5034815;28;20028;-78
2022/11/03 10:19:17;;;;;;;7.50;3.47;;;14.40;63.80;;;;;;5034764;28;20487;-80
2022/11/03 10:21:43;;;;;;;9.73;4.32;;;14.50;62.30;;;;;;5034559;28;20048;-88
2022/11/03 10:24:13;;;;;;;7.53;3.20;;;14.60;62.00;;;;;;5016657;23;20046;-81
2022/11/03 10:26:44;;;;;;;5.93;3.08;;;14.70;59.50;;;;;;4996579;28;20044;-81
2022/11/03 10:29:18;;;;;;;6.55;2.88;;;14.80;59.00;;;;;;5014299;28;20487;-82
2022/11/03 10:31:53;;;;;;;3.67;2.25;;;14.80;59.70;;;;;;5014556;28;20081;-82
2022/11/03 10:34:34;;;;;;;3.50;1.98;;;14.90;56.70;;;;;;5014577;28;20026;-82
2022/11/03 10:37:20;;;;;;;4.57;1.52;;;15.00;55.60;;;;;;5014588;28;20057;-82
2022/11/03 10:39:47;;;;;;;4.63;1.83;;;15.10;53.60;;;;;;5014499;28;20368;-81
2022/11/03 10:42:31;;;;;;;5.93;2.28;;;15.30;53.60;;;;;;5014547;28;20026;-82
2022/11/03 10:45:14;;;;;;;2.35;1.70;;;15.40;54.00;;;;;;5014653;28;20032;-83
2022/11/03 10:47:40;;;;;;;6.28;1.95;;;15.50;52.60;;;;;;5014472;28;20037;-82
2022/11/03 10:50:25;;;;;;;4.28;1.30;;;15.60;52.30;;;;;;5014166;28;20030;-78
2022/11/03 10:52:52;;;;;;;4.55;1.80;;;15.60;47.70;;;;;;5014342;28;20258;-80
2022/11/03 10:55:19;;;;;;;4.13;1.35;;;15.70;49.00;;;;;;4996845;28;20041;-80
2022/11/03 10:57:45;;;;;;;1.38;1.00;;;15.70;45.20;;;;;;5014208;28;20057;-80
2022/11/03 11:06:32;;;;;;;1.73;1.00;;;15.80;41.30;;;;;;5022475;22;20442;-81
2022/11/03 11:09:04;;;;;;;3.30;1.17;;;15.90;40.40;;;;;;4996260;28;20136;-80
2022/11/03 11:11:29;;;;;;;3.67;1.17;;;15.90;41.60;;;;;;5013851;28;20021;-80
2022/11/03 11:14:21;;;;;;;5.35;0.90;;;16.00;41.50;;;;;;5012558;28;20125;-80
2022/11/03 11:16:50;;;;;;;6.68;1.65;;;16.00;40.90;;;;;;5014085;28;20105;-80
2022/11/03 11:19:15;;;;;;;3.08;1.08;;;15.90;42.20;;;;;;5013627;28;20391;-79
2022/11/03 11:21:41;;;;;;;2.25;1.08;;;15.90;41.70;;;;;;4995848;28;20022;-79
2022/11/03 11:24:10;;;;;;;3.75;1.23;;;15.80;41.50;;;;;;5013516;28;20026;-82
2022/11/03 11:26:39;;;;;;;4.15;1.20;;;15.80;41.60;;;;;;5013504;28;20021;-80
2022/11/03 11:31:35;;;;;;;3.40;1.20;;;15.70;42.40;;;;;;5019261;22;20430;-80
2022/11/03 11:34:15;;;;;;;1.92;1.20;;;15.70;41.90;;;;;;5000839;22;20050;-80
2022/11/03 11:36:43;;;;;;;1.92;1.15;;;15.70;43.50;;;;;;4992653;28;20030;-80
2022/11/03 11:39:27;;;;;;;3.90;1.45;;;15.60;43.10;;;;;;4993806;28;20027;-80
2022/11/03 11:42:16;;;;;;;2.22;1.30;;;15.60;42.10;;;;;;4993942;28;20030;-81
2022/11/03 11:44:41;;;;;;;1.70;1.20;;;15.60;43.20;;;;;;4993822;28;20018;-80
2022/11/03 11:49:42;;;;;;;3.17;1.17;;;15.60;43.00;;;;;;5322913;23;20426;-84
2022/11/03 11:55:46;;;;;;;2.42;1.13;;;15.60;43.40;;;;;;5046720;23;20163;-80
2022/11/03 11:58:30;;;;;;;2.17;1.20;;;15.50;43.00;;;;;;5012245;28;20517;-79
2022/11/03 12:03:41;;;;;;;1.80;1.20;;;15.50;43.40;;;;;;5046721;22;20466;-79
2022/11/03 12:06:08;;;;;;;2.40;1.10;;;15.50;44.20;;;;;;5013481;28;20025;-78
2022/11/03 12:08:34;;;;;;;2.25;1.67;;;15.40;44.10;;;;;;5026510;22;20509;-79
2022/11/03 12:11:02;;;;;;;2.95;1.50;;;15.40;44.50;;;;;;5025345;23;20081;-80
2022/11/03 12:26:36;;;;;;;4.13;1.73;;;15.30;45.90;;;;;;5027465;22;21176;-80
2022/11/03 12:38:37;;;;;;;4.97;2.00;;;15.10;48.60;;;;;;5043274;23;20080;-80
2022/11/03 12:41:36;;;;;;;3.53;2.05;;;15.10;49.80;;;;;;5031397;28;20053;-82
2022/11/03 12:43:55;;;;;;;3.88;1.80;;;15.00;49.50;;;;;;5033287;28;20111;-82
2022/11/03 12:46:21;;;;;;;4.97;2.10;;;15.00;50.30;;;;;;5032470;28;20029;-80
2022/11/03 12:48:48;;;;;;;3.67;1.75;;;14.90;50.20;;;;;;5032724;28;20076;-79
2022/11/03 12:51:16;;;;;;;4.30;1.77;;;14.90;50.10;;;;;;5032269;28;20112;-79
2022/11/03 12:53:41;;;;;;;4.53;1.67;;;14.80;49.90;;;;;;5032079;28;20091;-81
2022/11/03 12:56:08;;;;;;;3.47;1.77;;;14.80;50.40;;;;;;5031026;28;20025;-79
2022/11/03 12:58:34;;;;;;;4.93;2.00;;;14.80;50.30;;;;;;5035216;28;20021;-78
2022/11/03 13:01:00;;;;;;;3.33;1.52;;;14.80;50.10;;;;;;5036278;28;20018;-79
2022/11/03 13:03:25;;;;;;;4.15;1.95;;;14.80;50.70;;;;;;5036105;28;20033;-80
2022/11/03 13:05:51;;;;;;;2.70;1.63;;;14.80;50.70;;;;;;5036202;28;20021;-79
2022/11/03 13:08:17;;;;;;;2.58;2.10;;;14.80;51.40;;;;;;5035514;28;20029;-80
2022/11/03 13:10:42;;;;;;;4.05;1.80;;;14.80;51.30;;;;;;5035513;28;20033;-81
2022/11/03 13:13:08;;;;;;;4.72;2.30;;;14.80;51.60;;;;;;5035449;28;20025;-80
2022/11/03 13:18:00;;;;;;;3.10;2.17;;;14.70;52.40;;;;;;5121864;22;20061;-82
2022/11/03 13:20:26;;;;;;;5.88;2.47;;;14.70;52.30;;;;;;5024651;28;20117;-81
2022/11/03 13:22:51;;;;;;;5.38;2.38;;;14.60;53.20;;;;;;5017855;28;20026;-79
2022/11/03 13:30:29;;;;;;;4.03;1.98;;;14.50;54.30;;;;;;5068767;22;20507;-78
2022/11/03 13:32:55;;;;;;;3.33;2.22;;;14.40;53.90;;;;;;5014933;28;20030;-80
2022/11/03 13:35:20;;;;;;;5.63;2.20;;;14.40;54.10;;;;;;5014474;28;20075;-78
2022/11/03 13:41:08;;;;;;;3.92;2.42;;;14.30;56.30;;;;;;5023045;23;20449;-82
2022/11/03 13:43:34;;;;;;;3.35;2.13;;;14.30;56.30;;;;;;5014837;28;20057;-82
2022/11/03 13:46:01;;;;;;;4.03;2.30;;;14.20;55.50;;;;;;5015849;28;20022;-78
2022/11/03 13:48:27;;;;;;;5.65;2.28;;;14.20;56.00;;;;;;5015449;28;20076;-82
2022/11/03 13:50:53;;;;;;;4.10;2.08;;;14.20;55.60;;;;;;5015555;28;20026;-80
2022/11/03 13:53:18;;;;;;;5.80;2.33;;;14.20;54.00;;;;;;5015503;28;20032;-79
2022/11/03 13:58:20;;;;;;;5.35;2.10;;;14.30;55.70;;;;;;5742614;22;20046;-78
2022/11/03 14:03:58;;;;;;;3.37;2.27;;;14.30;54.50;;;;;;6111411;22;21548;31
2022/11/03 14:16:54;;;;;;;2.60;1.90;;;14.10;55.90;;;;;;5092616;23;20057;-79
2022/11/03 14:19:20;;;;;;;4.50;2.10;;;14.10;56.20;;;;;;5031435;28;20094;-81
2022/11/03 14:21:46;;;;;;;6.00;2.30;;;14.10;56.90;;;;;;5035124;28;20053;-80
2022/11/03 14:24:11;;;;;;;4.88;2.40;;;14.10;55.40;;;;;;5036316;28;20067;-79
2022/11/03 14:26:37;;;;;;;4.20;2.35;;;14.20;55.30;;;;;;5038355;28;20057;-79
2022/11/03 14:29:03;;;;;;;3.90;2.17;;;14.10;56.10;;;;;;5037515;28;20037;-80
2022/11/03 14:31:28;;;;;;;6.50;2.50;;;14.10;55.70;;;;;;5036636;28;20037;-78
2022/11/03 14:33:54;;;;;;;3.28;2.40;;;14.10;55.70;;;;;;5030543;28;20026;-78
2022/11/03 14:36:19;;;;;;;5.60;2.47;;;14.10;55.80;;;;;;5036973;28;20044;-79
2022/11/03 14:38:45;;;;;;;5.35;2.47;;;14.10;56.40;;;;;;5053315;28;20085;-79
2022/11/03 14:43:55;;;;;;;6.22;2.55;;;14.00;56.90;;;;;;5057955;28;20028;-80
2022/11/03 14:46:20;;;;;;;7.45;3.90;;;14.00;57.80;;;;;;5057541;28;20010;-77
2022/11/03 14:48:46;;;;;;;6.15;2.92;;;13.90;57.80;;;;;;5056378;28;20029;-80
2022/11/03 14:51:11;;;;;;;6.18;3.75;;;13.90;58.30;;;;;;5058156;28;20025;-80
2022/11/03 14:53:37;;;;;;;6.63;2.75;;;13.90;58.40;;;;;;5056308;28;20040;-80
2022/11/03 15:03:43;;;;;;;4.60;3.10;;;13.50;60.00;;;;;;5943196;22;20328;-80